sensor_id;sensor_type;location;lat;lon;timestamp;P1;P2;P0
46381;PMS5003;66809;52.974;-2.514;2024-03-08T00:01:41;50.81666666666667;46.36666666666667;
46381;PMS5003;66809;52.974;-2.514;2024-03-08T00:03:41;50.9;46.56666666666667;
46381;PMS5003;66809;52.974;-2.514;2024-03-08T00:05:41;50.93333333333333;46.63333333333333;
46381;PMS5003;66809;52.974;-2.514;2024-03-08T00:07:41;50.55;46.333333333333336;
46381;PMS5003;66809;52.974;-2.514;2024-03-08T00:09:41;50.28333333333333;46.21666666666667;
46381;PMS5003;66809;52.974;-2.514;2024-03-08T00:11:41;50.166666666666664;46.21666666666667;
46381;PMS5003;66809;52.974;-2.514;2024-03-08T00:13:41;50.25;46.18333333333333;
46381;PMS5003;66809;52.974;-2.514;2024-03-08T00:15:41;50.416666666666664;46.38333333333333;
46381;PMS5003;66809;52.974;-2.514;2024-03-08T00:17:42;50.35;46.4;
46381;PMS5003;66809;52.974;-2.514;2024-03-08T00:19:42;50.28333333333333;46.31666666666667;
46381;PMS5003;66809;52.974;-2.514;2024-03-08T00:21:41;50.21666666666667;46.25;
46381;PMS5003;66809;52.974;-2.514;2024-03-08T00:23:41;50.11666666666667;46.2;
46381;PMS5003;66809;52.974;-2.514;2024-03-08T00:25:41;49.983333333333334;46.016666666666666;
46381;PMS5003;66809;52.974;-2.514;2024-03-08T00:27:41;49.766666666666666;45.63333333333333;
46381;PMS5003;66809;52.974;-2.514;2024-03-08T00:29:41;49.666666666666664;45.56666666666667;
46381;PMS5003;66809;52.974;-2.514;2024-03-08T00:31:42;49.233333333333334;45.2;
46381;PMS5003;66809;52.974;-2.514;2024-03-08T00:33:41;48.7;44.8;
46381;PMS5003;66809;52.974;-2.514;2024-03-08T00:35:41;48.333333333333336;44.46666666666667;
46381;PMS5003;66809;52.974;-2.514;2024-03-08T00:37:41;48.03333333333333;44.2;
46381;PMS5003;66809;52.974;-2.514;2024-03-08T00:39:42;48.13333333333333;44.25;
46381;PMS5003;66809;52.974;-2.514;2024-03-08T00:41:41;48.15;44.266666666666666;
46381;PMS5003;66809;52.974;-2.514;2024-03-08T00:43:41;48.166666666666664;44.266666666666666;
46381;PMS5003;66809;52.974;-2.514;2024-03-08T00:45:42;48.35;44.36666666666667;
46381;PMS5003;66809;52.974;-2.514;2024-03-08T00:47:41;48.31666666666667;44.43333333333333;
46381;PMS5003;66809;52.974;-2.514;2024-03-08T00:49:41;48.36666666666667;44.31666666666667;
46381;PMS5003;66809;52.974;-2.514;2024-03-08T00:51:41;48.55;44.43333333333333;
46381;PMS5003;66809;52.974;-2.514;2024-03-08T00:53:42;48.583333333333336;44.416666666666664;
46381;PMS5003;66809;52.974;-2.514;2024-03-08T00:55:41;48.7;44.516666666666666;
46381;PMS5003;66809;52.974;-2.514;2024-03-08T00:57:41;48.65;44.416666666666664;
46381;PMS5003;66809;52.974;-2.514;2024-03-08T00:59:41;48.983333333333334;44.63333333333333;
46381;PMS5003;66809;52.974;-2.514;2024-03-08T01:01:42;49.13333333333333;44.78333333333333;
46381;PMS5003;66809;52.974;-2.514;2024-03-08T01:03:42;49.13333333333333;44.75;
46381;PMS5003;66809;52.974;-2.514;2024-03-08T01:05:41;49.36666666666667;44.95;
46381;PMS5003;66809;52.974;-2.514;2024-03-08T01:07:41;50.03333333333333;45.416666666666664;
46381;PMS5003;66809;52.974;-2.514;2024-03-08T01:09:41;50.4;45.65;
46381;PMS5003;66809;52.974;-2.514;2024-03-08T01:11:41;50.75;45.88333333333333;
46381;PMS5003;66809;52.974;-2.514;2024-03-08T01:13:41;50.86666666666667;46.13333333333333;
46381;PMS5003;66809;52.974;-2.514;2024-03-08T01:15:41;51.13333333333333;46.3;
46381;PMS5003;66809;52.974;-2.514;2024-03-08T01:17:41;51.45;46.55;
46381;PMS5003;66809;52.974;-2.514;2024-03-08T01:19:41;51.68333333333333;46.85;
46381;PMS5003;66809;52.974;-2.514;2024-03-08T01:21:42;51.93333333333333;47.11666666666667;
46381;PMS5003;66809;52.974;-2.514;2024-03-08T01:23:41;52.11666666666667;47.3;
46381;PMS5003;66809;52.974;-2.514;2024-03-08T01:25:41;52.65;47.7;
46381;PMS5003;66809;52.974;-2.514;2024-03-08T01:27:41;53.0;48.05;
46381;PMS5003;66809;52.974;-2.514;2024-03-08T01:29:41;53.43333333333333;48.36666666666667;
46381;PMS5003;66809;52.974;-2.514;2024-03-08T01:31:41;53.86666666666667;48.78333333333333;
46381;PMS5003;66809;52.974;-2.514;2024-03-08T01:33:41;54.38333333333333;49.21666666666667;
46381;PMS5003;66809;52.974;-2.514;2024-03-08T01:35:41;54.8;49.53333333333333;
46381;PMS5003;66809;52.974;-2.514;2024-03-08T01:37:42;55.38333333333333;49.88333333333333;
46381;PMS5003;66809;52.974;-2.514;2024-03-08T01:39:41;55.5;50.06666666666667;
46381;PMS5003;66809;52.974;-2.514;2024-03-08T01:41:41;55.36666666666667;50.05;
46381;PMS5003;66809;52.974;-2.514;2024-03-08T01:43:42;55.55;50.1;
46381;PMS5003;66809;52.974;-2.514;2024-03-08T01:45:41;55.583333333333336;50.15;
46381;PMS5003;66809;52.974;-2.514;2024-03-08T01:47:41;56.016666666666666;50.53333333333333;
46381;PMS5003;66809;52.974;-2.514;2024-03-08T01:49:41;56.3;50.9;
46381;PMS5003;66809;52.974;-2.514;2024-03-08T01:51:41;56.6;51.166666666666664;
46381;PMS5003;66809;52.974;-2.514;2024-03-08T01:53:41;56.85;51.36666666666667;
46381;PMS5003;66809;52.974;-2.514;2024-03-08T01:55:41;57.25;51.65;
46381;PMS5003;66809;52.974;-2.514;2024-03-08T01:57:41;57.4;51.95;
46381;PMS5003;66809;52.974;-2.514;2024-03-08T01:59:41;57.483333333333334;52.03333333333333;
46381;PMS5003;66809;52.974;-2.514;2024-03-08T02:01:41;57.75;52.233333333333334;
46381;PMS5003;66809;52.974;-2.514;2024-03-08T02:03:41;58.05;52.53333333333333;
46381;PMS5003;66809;52.974;-2.514;2024-03-08T02:05:42;58.166666666666664;52.65;
46381;PMS5003;66809;52.974;-2.514;2024-03-08T02:07:42;58.083333333333336;52.55;
46381;PMS5003;66809;52.974;-2.514;2024-03-08T02:09:41;58.166666666666664;52.7;
46381;PMS5003;66809;52.974;-2.514;2024-03-08T02:11:41;58.2;52.8;
46381;PMS5003;66809;52.974;-2.514;2024-03-08T02:13:41;58.56666666666667;53.0;
46381;PMS5003;66809;52.974;-2.514;2024-03-08T02:15:57;58.583333333333336;53.03333333333333;
46381;PMS5003;66809;52.974;-2.514;2024-03-08T02:17:41;58.75;53.3;
46381;PMS5003;66809;52.974;-2.514;2024-03-08T02:19:41;58.983333333333334;53.36666666666667;
46381;PMS5003;66809;52.974;-2.514;2024-03-08T02:21:41;59.333333333333336;53.71666666666667;
46381;PMS5003;66809;52.974;-2.514;2024-03-08T02:23:41;59.56666666666667;53.916666666666664;
46381;PMS5003;66809;52.974;-2.514;2024-03-08T02:25:41;59.43333333333333;53.95;
46381;PMS5003;66809;52.974;-2.514;2024-03-08T02:27:41;59.733333333333334;54.25;
46381;PMS5003;66809;52.974;-2.514;2024-03-08T02:29:42;59.766666666666666;54.266666666666666;
46381;PMS5003;66809;52.974;-2.514;2024-03-08T02:31:42;59.833333333333336;54.36666666666667;
46381;PMS5003;66809;52.974;-2.514;2024-03-08T02:33:41;59.81666666666667;54.416666666666664;
46381;PMS5003;66809;52.974;-2.514;2024-03-08T02:35:41;60.03333333333333;54.78333333333333;
46381;PMS5003;66809;52.974;-2.514;2024-03-08T02:37:41;60.0;54.93333333333333;
46381;PMS5003;66809;52.974;-2.514;2024-03-08T02:39:41;60.266666666666666;55.1;
46381;PMS5003;66809;52.974;-2.514;2024-03-08T02:41:41;60.61666666666667;55.333333333333336;
46381;PMS5003;66809;52.974;-2.514;2024-03-08T02:43:41;60.9;55.61666666666667;
46381;PMS5003;66809;52.974;-2.514;2024-03-08T02:45:42;60.983333333333334;55.68333333333333;
46381;PMS5003;66809;52.974;-2.514;2024-03-08T02:47:41;60.916666666666664;55.55;
46381;PMS5003;66809;52.974;-2.514;2024-03-08T02:49:41;60.93333333333333;55.583333333333336;
46381;PMS5003;66809;52.974;-2.514;2024-03-08T02:51:41;61.15;55.81666666666667;
46381;PMS5003;66809;52.974;-2.514;2024-03-08T02:53:41;61.35;55.9;
46381;PMS5003;66809;52.974;-2.514;2024-03-08T02:55:41;61.05;55.68333333333333;
46381;PMS5003;66809;52.974;-2.514;2024-03-08T02:57:41;61.416666666666664;55.9;
46381;PMS5003;66809;52.974;-2.514;2024-03-08T02:59:41;61.65;56.13333333333333;
46381;PMS5003;66809;52.974;-2.514;2024-03-08T03:01:41;61.71666666666667;56.166666666666664;
46381;PMS5003;66809;52.974;-2.514;2024-03-08T03:03:41;61.8;56.2;
46381;PMS5003;66809;52.974;-2.514;2024-03-08T03:05:42;61.95;56.38333333333333;
46381;PMS5003;66809;52.974;-2.514;2024-03-08T03:07:41;62.03333333333333;56.6;
46381;PMS5003;66809;52.974;-2.514;2024-03-08T03:09:41;62.233333333333334;56.766666666666666;
46381;PMS5003;66809;52.974;-2.514;2024-03-08T03:11:43;62.56666666666667;57.05;
46381;PMS5003;66809;52.974;-2.514;2024-03-08T03:13:41;62.733333333333334;57.28333333333333;
46381;PMS5003;66809;52.974;-2.514;2024-03-08T03:15:41;62.88333333333333;57.53333333333333;
46381;PMS5003;66809;52.974;-2.514;2024-03-08T03:17:41;62.75;57.31666666666667;
46381;PMS5003;66809;52.974;-2.514;2024-03-08T03:19:41;62.68333333333333;57.43333333333333;
46381;PMS5003;66809;52.974;-2.514;2024-03-08T03:21:42;62.38333333333333;57.1;
46381;PMS5003;66809;52.974;-2.514;2024-03-08T03:23:41;62.583333333333336;57.28333333333333;
46381;PMS5003;66809;52.974;-2.514;2024-03-08T03:25:41;62.666666666666664;57.4;
46381;PMS5003;66809;52.974;-2.514;2024-03-08T03:27:41;62.583333333333336;57.4;
46381;PMS5003;66809;52.974;-2.514;2024-03-08T03:29:42;62.766666666666666;57.516666666666666;
46381;PMS5003;66809;52.974;-2.514;2024-03-08T03:31:42;63.016666666666666;57.63333333333333;
46381;PMS5003;66809;52.974;-2.514;2024-03-08T03:33:41;63.2;57.78333333333333;
46381;PMS5003;66809;52.974;-2.514;2024-03-08T03:35:42;63.483333333333334;57.93333333333333;
46381;PMS5003;66809;52.974;-2.514;2024-03-08T03:37:41;63.8;58.13333333333333;
46381;PMS5003;66809;52.974;-2.514;2024-03-08T03:39:41;63.71666666666667;58.13333333333333;
46381;PMS5003;66809;52.974;-2.514;2024-03-08T03:41:42;63.65;58.11666666666667;
46381;PMS5003;66809;52.974;-2.514;2024-03-08T03:43:42;63.85;58.36666666666667;
46381;PMS5003;66809;52.974;-2.514;2024-03-08T03:45:41;63.88333333333333;58.416666666666664;
46381;PMS5003;66809;52.974;-2.514;2024-03-08T03:47:42;63.983333333333334;58.65;
46381;PMS5003;66809;52.974;-2.514;2024-03-08T03:49:41;64.38333333333334;59.05;
46381;PMS5003;66809;52.974;-2.514;2024-03-08T03:51:42;64.51666666666667;59.1;
46381;PMS5003;66809;52.974;-2.514;2024-03-08T03:53:42;64.6;59.28333333333333;
46381;PMS5003;66809;52.974;-2.514;2024-03-08T03:55:41;65.0;59.63333333333333;
46381;PMS5003;66809;52.974;-2.514;2024-03-08T03:57:41;64.9;59.65;
46381;PMS5003;66809;52.974;-2.514;2024-03-08T03:59:41;64.91666666666667;59.7;
46381;PMS5003;66809;52.974;-2.514;2024-03-08T04:01:42;64.75;59.6;
46381;PMS5003;66809;52.974;-2.514;2024-03-08T04:03:41;64.8;59.71666666666667;
46381;PMS5003;66809;52.974;-2.514;2024-03-08T04:05:41;65.13333333333334;59.983333333333334;
46381;PMS5003;66809;52.974;-2.514;2024-03-08T04:07:42;65.58333333333333;60.28333333333333;
46381;PMS5003;66809;52.974;-2.514;2024-03-08T04:09:41;65.71666666666667;60.333333333333336;
46381;PMS5003;66809;52.974;-2.514;2024-03-08T04:11:41;65.78333333333333;60.38333333333333;
46381;PMS5003;66809;52.974;-2.514;2024-03-08T04:13:42;65.71666666666667;60.38333333333333;
46381;PMS5003;66809;52.974;-2.514;2024-03-08T04:15:41;65.88333333333334;60.6;
46381;PMS5003;66809;52.974;-2.514;2024-03-08T04:17:41;66.33333333333333;60.96666666666667;
46381;PMS5003;66809;52.974;-2.514;2024-03-08T04:19:41;66.53333333333333;61.03333333333333;
46381;PMS5003;66809;52.974;-2.514;2024-03-08T04:21:41;66.9;61.36666666666667;
46381;PMS5003;66809;52.974;-2.514;2024-03-08T04:23:41;67.03333333333333;61.6;
46381;PMS5003;66809;52.974;-2.514;2024-03-08T04:25:42;67.33333333333333;61.86666666666667;
46381;PMS5003;66809;52.974;-2.514;2024-03-08T04:27:41;67.43333333333334;61.93333333333333;
46381;PMS5003;66809;52.974;-2.514;2024-03-08T04:29:41;67.51666666666667;62.13333333333333;
46381;PMS5003;66809;52.974;-2.514;2024-03-08T04:31:42;67.65;62.31666666666667;
46381;PMS5003;66809;52.974;-2.514;2024-03-08T04:33:41;67.7;62.38333333333333;
46381;PMS5003;66809;52.974;-2.514;2024-03-08T04:35:41;67.66666666666667;62.38333333333333;
46381;PMS5003;66809;52.974;-2.514;2024-03-08T04:37:42;67.51666666666667;62.3;
46381;PMS5003;66809;52.974;-2.514;2024-03-08T04:39:41;67.88333333333334;62.63333333333333;
46381;PMS5003;66809;52.974;-2.514;2024-03-08T04:41:41;68.43333333333334;62.96666666666667;
46381;PMS5003;66809;52.974;-2.514;2024-03-08T04:43:42;68.91666666666667;63.4;
46381;PMS5003;66809;52.974;-2.514;2024-03-08T04:45:42;69.58333333333333;63.916666666666664;
46381;PMS5003;66809;52.974;-2.514;2024-03-08T04:47:41;69.83333333333333;64.01666666666667;
46381;PMS5003;66809;52.974;-2.514;2024-03-08T04:49:41;69.7;63.833333333333336;
46381;PMS5003;66809;52.974;-2.514;2024-03-08T04:51:41;69.83333333333333;64.1;
46381;PMS5003;66809;52.974;-2.514;2024-03-08T04:53:42;70.13333333333334;64.3;
46381;PMS5003;66809;52.974;-2.514;2024-03-08T04:55:41;70.21666666666667;64.48333333333333;
46381;PMS5003;66809;52.974;-2.514;2024-03-08T04:57:41;70.46666666666667;64.66666666666667;
46381;PMS5003;66809;52.974;-2.514;2024-03-08T04:59:42;70.85;64.98333333333333;
46381;PMS5003;66809;52.974;-2.514;2024-03-08T05:01:41;71.16666666666667;65.33333333333333;
46381;PMS5003;66809;52.974;-2.514;2024-03-08T05:03:41;71.3;65.36666666666666;
46381;PMS5003;66809;52.974;-2.514;2024-03-08T05:05:41;71.25;65.28333333333333;
46381;PMS5003;66809;52.974;-2.514;2024-03-08T05:07:42;71.21666666666667;65.2;
46381;PMS5003;66809;52.974;-2.514;2024-03-08T05:09:41;71.31666666666666;65.36666666666666;
46381;PMS5003;66809;52.974;-2.514;2024-03-08T05:11:41;71.23333333333333;65.21666666666667;
46381;PMS5003;66809;52.974;-2.514;2024-03-08T05:13:41;71.26666666666667;65.05;
46381;PMS5003;66809;52.974;-2.514;2024-03-08T05:15:41;71.2;64.88333333333334;
46381;PMS5003;66809;52.974;-2.514;2024-03-08T05:17:42;71.2;64.95;
46381;PMS5003;66809;52.974;-2.514;2024-03-08T05:19:41;71.38333333333334;65.06666666666666;
46381;PMS5003;66809;52.974;-2.514;2024-03-08T05:21:41;71.48333333333333;65.08333333333333;
46381;PMS5003;66809;52.974;-2.514;2024-03-08T05:23:41;71.41666666666667;64.91666666666667;
46381;PMS5003;66809;52.974;-2.514;2024-03-08T05:25:42;71.56666666666666;65.11666666666666;
46381;PMS5003;66809;52.974;-2.514;2024-03-08T05:27:41;71.93333333333334;65.41666666666667;
46381;PMS5003;66809;52.974;-2.514;2024-03-08T05:29:41;72.06666666666666;65.5;
46381;PMS5003;66809;52.974;-2.514;2024-03-08T05:31:45;72.3;65.65;
46381;PMS5003;66809;52.974;-2.514;2024-03-08T05:33:41;72.46666666666667;65.83333333333333;
46381;PMS5003;66809;52.974;-2.514;2024-03-08T05:35:42;72.53333333333333;65.93333333333334;
46381;PMS5003;66809;52.974;-2.514;2024-03-08T05:37:41;72.76666666666667;66.1;
46381;PMS5003;66809;52.974;-2.514;2024-03-08T05:39:41;72.83333333333333;66.03333333333333;
46381;PMS5003;66809;52.974;-2.514;2024-03-08T05:41:41;72.88333333333334;66.15;
46381;PMS5003;66809;52.974;-2.514;2024-03-08T05:43:41;72.48333333333333;65.81666666666666;
46381;PMS5003;66809;52.974;-2.514;2024-03-08T05:45:42;72.35;65.75;
46381;PMS5003;66809;52.974;-2.514;2024-03-08T05:47:41;72.66666666666667;66.05;
46381;PMS5003;66809;52.974;-2.514;2024-03-08T05:49:41;72.86666666666666;66.26666666666667;
46381;PMS5003;66809;52.974;-2.514;2024-03-08T05:51:41;72.96666666666667;66.18333333333334;
46381;PMS5003;66809;52.974;-2.514;2024-03-08T05:53:41;72.8;66.13333333333334;
46381;PMS5003;66809;52.974;-2.514;2024-03-08T05:55:41;73.16666666666667;66.4;
46381;PMS5003;66809;52.974;-2.514;2024-03-08T05:57:42;73.56666666666666;66.7;
46381;PMS5003;66809;52.974;-2.514;2024-03-08T05:59:41;73.7;66.76666666666667;
46381;PMS5003;66809;52.974;-2.514;2024-03-08T06:01:41;74.15;67.05;
46381;PMS5003;66809;52.974;-2.514;2024-03-08T06:03:42;74.45;67.28333333333333;
46381;PMS5003;66809;52.974;-2.514;2024-03-08T06:05:41;74.85;67.66666666666667;
46381;PMS5003;66809;52.974;-2.514;2024-03-08T06:07:41;75.45;68.15;
46381;PMS5003;66809;52.974;-2.514;2024-03-08T06:09:41;75.73333333333333;68.31666666666666;
46381;PMS5003;66809;52.974;-2.514;2024-03-08T06:11:42;76.21666666666667;68.76666666666667;
46381;PMS5003;66809;52.974;-2.514;2024-03-08T06:13:41;76.38333333333334;69.11666666666666;
46381;PMS5003;66809;52.974;-2.514;2024-03-08T06:15:41;76.83333333333333;69.56666666666666;
46381;PMS5003;66809;52.974;-2.514;2024-03-08T06:17:42;77.08333333333333;69.73333333333333;
46381;PMS5003;66809;52.974;-2.514;2024-03-08T06:19:42;77.25;69.96666666666667;
46381;PMS5003;66809;52.974;-2.514;2024-03-08T06:21:41;77.48333333333333;70.21666666666667;
46381;PMS5003;66809;52.974;-2.514;2024-03-08T06:23:41;78.0;70.58333333333333;
46381;PMS5003;66809;52.974;-2.514;2024-03-08T06:25:41;78.26666666666667;70.68333333333334;
46381;PMS5003;66809;52.974;-2.514;2024-03-08T06:27:42;78.21666666666667;70.58333333333333;
46381;PMS5003;66809;52.974;-2.514;2024-03-08T06:29:41;78.35;70.71666666666667;
46381;PMS5003;66809;52.974;-2.514;2024-03-08T06:31:41;78.56666666666666;70.88333333333334;
46381;PMS5003;66809;52.974;-2.514;2024-03-08T06:33:42;78.71666666666667;70.91666666666667;
46381;PMS5003;66809;52.974;-2.514;2024-03-08T06:35:41;79.11666666666666;71.11666666666666;
46381;PMS5003;66809;52.974;-2.514;2024-03-08T06:37:41;79.56666666666666;71.43333333333334;
46381;PMS5003;66809;52.974;-2.514;2024-03-08T06:39:42;79.76666666666667;71.65;
46381;PMS5003;66809;52.974;-2.514;2024-03-08T06:41:42;80.16666666666667;71.91666666666667;
46381;PMS5003;66809;52.974;-2.514;2024-03-08T06:43:41;80.68333333333334;72.2;
46381;PMS5003;66809;52.974;-2.514;2024-03-08T06:45:41;80.75;72.38333333333334;
46381;PMS5003;66809;52.974;-2.514;2024-03-08T06:47:41;80.6;72.26666666666667;
46381;PMS5003;66809;52.974;-2.514;2024-03-08T06:49:41;80.5;72.18333333333334;
46381;PMS5003;66809;52.974;-2.514;2024-03-08T06:51:41;80.68333333333334;72.38333333333334;
46381;PMS5003;66809;52.974;-2.514;2024-03-08T06:53:42;80.75;72.46666666666667;
46381;PMS5003;66809;52.974;-2.514;2024-03-08T06:55:41;81.0;72.58333333333333;
46381;PMS5003;66809;52.974;-2.514;2024-03-08T06:57:41;81.01666666666667;72.66666666666667;
46381;PMS5003;66809;52.974;-2.514;2024-03-08T06:59:41;80.95;72.58333333333333;
46381;PMS5003;66809;52.974;-2.514;2024-03-08T07:01:42;80.98333333333333;72.66666666666667;
46381;PMS5003;66809;52.974;-2.514;2024-03-08T07:03:41;81.16666666666667;72.91666666666667;
46381;PMS5003;66809;52.974;-2.514;2024-03-08T07:05:41;81.11666666666666;72.9;
46381;PMS5003;66809;52.974;-2.514;2024-03-08T07:07:42;80.81666666666666;72.83333333333333;
46381;PMS5003;66809;52.974;-2.514;2024-03-08T07:09:44;81.01666666666667;72.91666666666667;
46381;PMS5003;66809;52.974;-2.514;2024-03-08T07:11:41;80.98333333333333;73.01666666666667;
46381;PMS5003;66809;52.974;-2.514;2024-03-08T07:13:42;81.35;73.23333333333333;
46381;PMS5003;66809;52.974;-2.514;2024-03-08T07:15:41;81.2;73.08333333333333;
46381;PMS5003;66809;52.974;-2.514;2024-03-08T07:17:41;81.41666666666667;73.26666666666667;
46381;PMS5003;66809;52.974;-2.514;2024-03-08T07:19:41;81.46666666666667;73.16666666666667;
46381;PMS5003;66809;52.974;-2.514;2024-03-08T07:21:41;81.63333333333334;73.41666666666667;
46381;PMS5003;66809;52.974;-2.514;2024-03-08T07:23:42;81.78333333333333;73.46666666666667;
46381;PMS5003;66809;52.974;-2.514;2024-03-08T07:25:41;81.83333333333333;73.5;
46381;PMS5003;66809;52.974;-2.514;2024-03-08T07:27:41;82.2;73.8;
46381;PMS5003;66809;52.974;-2.514;2024-03-08T07:29:42;82.55;73.91666666666667;
46381;PMS5003;66809;52.974;-2.514;2024-03-08T07:31:41;82.53333333333333;74.0;
46381;PMS5003;66809;52.974;-2.514;2024-03-08T07:33:41;82.9;74.28333333333333;
46381;PMS5003;66809;52.974;-2.514;2024-03-08T07:35:41;82.81666666666666;74.26666666666667;
46381;PMS5003;66809;52.974;-2.514;2024-03-08T07:37:42;82.75;74.21666666666667;
46381;PMS5003;66809;52.974;-2.514;2024-03-08T07:39:41;82.88333333333334;74.3;
46381;PMS5003;66809;52.974;-2.514;2024-03-08T07:41:41;82.68333333333334;74.28333333333333;
46381;PMS5003;66809;52.974;-2.514;2024-03-08T07:43:41;82.76666666666667;74.36666666666666;
46381;PMS5003;66809;52.974;-2.514;2024-03-08T07:45:42;82.9;74.45;
46381;PMS5003;66809;52.974;-2.514;2024-03-08T07:47:41;83.25;74.63333333333334;
46381;PMS5003;66809;52.974;-2.514;2024-03-08T07:49:41;83.5;74.83333333333333;
46381;PMS5003;66809;52.974;-2.514;2024-03-08T07:51:41;83.63333333333334;75.0;
46381;PMS5003;66809;52.974;-2.514;2024-03-08T07:53:42;83.86666666666666;75.03333333333333;
46381;PMS5003;66809;52.974;-2.514;2024-03-08T07:55:41;83.23333333333333;74.6;
46381;PMS5003;66809;52.974;-2.514;2024-03-08T07:57:41;83.16666666666667;74.55;
46381;PMS5003;66809;52.974;-2.514;2024-03-08T07:59:41;83.18333333333334;74.5;
46381;PMS5003;66809;52.974;-2.514;2024-03-08T08:01:42;83.13333333333334;74.4;
46381;PMS5003;66809;52.974;-2.514;2024-03-08T08:03:41;82.95;74.16666666666667;
46381;PMS5003;66809;52.974;-2.514;2024-03-08T08:05:41;83.0;74.16666666666667;
46381;PMS5003;66809;52.974;-2.514;2024-03-08T08:07:43;83.0;74.1;
46381;PMS5003;66809;52.974;-2.514;2024-03-08T08:09:42;83.05;74.16666666666667;
46381;PMS5003;66809;52.974;-2.514;2024-03-08T08:11:41;83.08333333333333;74.05;
46381;PMS5003;66809;52.974;-2.514;2024-03-08T08:13:41;82.91666666666667;73.95;
46381;PMS5003;66809;52.974;-2.514;2024-03-08T08:15:41;83.28333333333333;74.15;
46381;PMS5003;66809;52.974;-2.514;2024-03-08T08:17:42;83.06666666666666;73.98333333333333;
46381;PMS5003;66809;52.974;-2.514;2024-03-08T08:19:42;82.9;73.95;
46381;PMS5003;66809;52.974;-2.514;2024-03-08T08:21:41;82.81666666666666;73.86666666666666;
46381;PMS5003;66809;52.974;-2.514;2024-03-08T08:23:41;82.68333333333334;73.91666666666667;
46381;PMS5003;66809;52.974;-2.514;2024-03-08T08:25:41;82.81666666666666;73.91666666666667;
46381;PMS5003;66809;52.974;-2.514;2024-03-08T08:27:42;82.4;73.66666666666667;
46381;PMS5003;66809;52.974;-2.514;2024-03-08T08:29:41;82.35;73.73333333333333;
46381;PMS5003;66809;52.974;-2.514;2024-03-08T08:31:41;82.21666666666667;73.56666666666666;
46381;PMS5003;66809;52.974;-2.514;2024-03-08T08:33:41;82.18333333333334;73.65;
46381;PMS5003;66809;52.974;-2.514;2024-03-08T08:35:42;82.55;73.85;
46381;PMS5003;66809;52.974;-2.514;2024-03-08T08:37:41;82.28333333333333;73.68333333333334;
46381;PMS5003;66809;52.974;-2.514;2024-03-08T08:39:41;82.08333333333333;73.48333333333333;
46381;PMS5003;66809;52.974;-2.514;2024-03-08T08:41:41;81.95;73.23333333333333;
46381;PMS5003;66809;52.974;-2.514;2024-03-08T08:43:42;81.73333333333333;73.1;
46381;PMS5003;66809;52.974;-2.514;2024-03-08T08:45:42;81.71666666666667;72.95;
46381;PMS5003;66809;52.974;-2.514;2024-03-08T08:47:41;81.31666666666666;72.78333333333333;
46381;PMS5003;66809;52.974;-2.514;2024-03-08T08:49:41;81.75;72.9;
46381;PMS5003;66809;52.974;-2.514;2024-03-08T08:51:42;81.38333333333334;72.58333333333333;
46381;PMS5003;66809;52.974;-2.514;2024-03-08T08:53:42;81.25;72.65;
46381;PMS5003;66809;52.974;-2.514;2024-03-08T08:55:42;81.65;72.91666666666667;
46381;PMS5003;66809;52.974;-2.514;2024-03-08T08:57:41;81.48333333333333;72.73333333333333;
46381;PMS5003;66809;52.974;-2.514;2024-03-08T08:59:41;81.5;72.86666666666666;
46381;PMS5003;66809;52.974;-2.514;2024-03-08T09:01:41;81.45;72.91666666666667;
46381;PMS5003;66809;52.974;-2.514;2024-03-08T09:03:42;81.61666666666666;73.03333333333333;
46381;PMS5003;66809;52.974;-2.514;2024-03-08T09:05:41;81.45;72.8;
46381;PMS5003;66809;52.974;-2.514;2024-03-08T09:07:41;81.55;72.86666666666666;
46381;PMS5003;66809;52.974;-2.514;2024-03-08T09:09:42;81.43333333333334;72.88333333333334;
46381;PMS5003;66809;52.974;-2.514;2024-03-08T09:11:41;81.41666666666667;72.93333333333334;
46381;PMS5003;66809;52.974;-2.514;2024-03-08T09:13:43;81.51666666666667;73.05;
46381;PMS5003;66809;52.974;-2.514;2024-03-08T09:15:41;81.08333333333333;72.88333333333334;
46381;PMS5003;66809;52.974;-2.514;2024-03-08T09:17:41;80.93333333333334;72.78333333333333;
46381;PMS5003;66809;52.974;-2.514;2024-03-08T09:19:41;80.95;72.75;
46381;PMS5003;66809;52.974;-2.514;2024-03-08T09:21:42;80.76666666666667;72.48333333333333;
46381;PMS5003;66809;52.974;-2.514;2024-03-08T09:23:41;80.4;72.06666666666666;
46381;PMS5003;66809;52.974;-2.514;2024-03-08T09:25:41;79.86666666666666;71.81666666666666;
46381;PMS5003;66809;52.974;-2.514;2024-03-08T09:27:41;79.68333333333334;71.63333333333334;
46381;PMS5003;66809;52.974;-2.514;2024-03-08T09:29:41;79.26666666666667;71.38333333333334;
46381;PMS5003;66809;52.974;-2.514;2024-03-08T09:31:42;79.01666666666667;71.21666666666667;
46381;PMS5003;66809;52.974;-2.514;2024-03-08T09:33:42;78.61666666666666;70.85;
46381;PMS5003;66809;52.974;-2.514;2024-03-08T09:35:41;78.16666666666667;70.63333333333334;